sensor_id;sensor_type;location;lat;lon;timestamp;temperature;humidity
52731;DHT22;38624;53.242;6.974;2023-08-12T00:00:09;18.40;99.90
52731;DHT22;38624;53.242;6.974;2023-08-12T00:02:41;18.40;99.90
52731;DHT22;38624;53.242;6.974;2023-08-12T00:05:07;18.40;99.90
52731;DHT22;38624;53.242;6.974;2023-08-12T00:07:34;18.30;99.90
52731;DHT22;38624;53.242;6.974;2023-08-12T00:10:01;18.30;99.90
52731;DHT22;38624;53.242;6.974;2023-08-12T00:12:31;18.30;99.90
52731;DHT22;38624;53.242;6.974;2023-08-12T00:14:57;18.30;99.90
52731;DHT22;38624;53.242;6.974;2023-08-12T00:17:23;18.30;99.90
52731;DHT22;38624;53.242;6.974;2023-08-12T00:19:48;18.20;99.90
52731;DHT22;38624;53.242;6.974;2023-08-12T00:22:14;18.20;99.90
52731;DHT22;38624;53.242;6.974;2023-08-12T00:24:40;18.20;99.90
52731;DHT22;38624;53.242;6.974;2023-08-12T00:27:06;18.20;99.90
52731;DHT22;38624;53.242;6.974;2023-08-12T00:29:35;18.20;99.90
52731;DHT22;38624;53.242;6.974;2023-08-12T00:32:01;18.20;99.90
52731;DHT22;38624;53.242;6.974;2023-08-12T00:34:27;18.20;99.90
52731;DHT22;38624;53.242;6.974;2023-08-12T00:36:53;18.10;99.90
52731;DHT22;38624;53.242;6.974;2023-08-12T00:39:18;18.10;99.90
52731;DHT22;38624;53.242;6.974;2023-08-12T00:41:44;18.10;99.90
52731;DHT22;38624;53.242;6.974;2023-08-12T00:44:10;18.10;99.90
52731;DHT22;38624;53.242;6.974;2023-08-12T00:46:38;18.00;99.90
52731;DHT22;38624;53.242;6.974;2023-08-12T00:49:04;18.00;99.90
52731;DHT22;38624;53.242;6.974;2023-08-12T00:51:30;18.00;99.90
52731;DHT22;38624;53.242;6.974;2023-08-12T00:53:58;17.90;99.90
52731;DHT22;38624;53.242;6.974;2023-08-12T00:56:24;17.90;99.90
52731;DHT22;38624;53.242;6.974;2023-08-12T00:58:52;17.90;99.90
52731;DHT22;38624;53.242;6.974;2023-08-12T01:01:17;17.90;99.90
52731;DHT22;38624;53.242;6.974;2023-08-12T01:03:43;17.90;99.90
52731;DHT22;38624;53.242;6.974;2023-08-12T01:06:09;17.80;99.90
52731;DHT22;38624;53.242;6.974;2023-08-12T01:08:35;17.80;99.90
52731;DHT22;38624;53.242;6.974;2023-08-12T01:11:20;17.80;99.90
52731;DHT22;38624;53.242;6.974;2023-08-12T01:13:46;17.80;99.90
52731;DHT22;38624;53.242;6.974;2023-08-12T01:16:16;17.70;99.90
52731;DHT22;38624;53.242;6.974;2023-08-12T01:18:43;17.70;99.90
52731;DHT22;38624;53.242;6.974;2023-08-12T01:21:10;17.70;99.90
52731;DHT22;38624;53.242;6.974;2023-08-12T01:23:38;17.70;99.90
52731;DHT22;38624;53.242;6.974;2023-08-12T01:26:04;17.60;99.90
52731;DHT22;38624;53.242;6.974;2023-08-12T01:28:30;17.60;99.90
52731;DHT22;38624;53.242;6.974;2023-08-12T01:31:01;17.60;99.90
52731;DHT22;38624;53.242;6.974;2023-08-12T01:33:39;17.60;99.90
52731;DHT22;38624;53.242;6.974;2023-08-12T01:36:16;17.60;99.90
52731;DHT22;38624;53.242;6.974;2023-08-12T01:38:43;17.60;99.90
52731;DHT22;38624;53.242;6.974;2023-08-12T01:41:10;17.60;99.90
52731;DHT22;38624;53.242;6.974;2023-08-12T01:43:38;17.50;99.90
52731;DHT22;38624;53.242;6.974;2023-08-12T01:46:04;17.50;99.90
52731;DHT22;38624;53.242;6.974;2023-08-12T01:48:29;17.40;99.90
52731;DHT22;38624;53.242;6.974;2023-08-12T01:50:55;17.40;99.90
52731;DHT22;38624;53.242;6.974;2023-08-12T01:53:20;17.40;99.90
52731;DHT22;38624;53.242;6.974;2023-08-12T01:55:49;17.40;99.90
52731;DHT22;38624;53.242;6.974;2023-08-12T01:58:14;17.30;99.90
52731;DHT22;38624;53.242;6.974;2023-08-12T02:00:40;17.30;99.90
52731;DHT22;38624;53.242;6.974;2023-08-12T02:03:06;17.30;99.90
52731;DHT22;38624;53.242;6.974;2023-08-12T02:05:33;17.30;99.90
52731;DHT22;38624;53.242;6.974;2023-08-12T02:07:58;17.30;99.90
52731;DHT22;38624;53.242;6.974;2023-08-12T02:10:24;17.20;99.90
52731;DHT22;38624;53.242;6.974;2023-08-12T02:12:50;17.20;99.90
52731;DHT22;38624;53.242;6.974;2023-08-12T02:15:15;17.20;99.90
52731;DHT22;38624;53.242;6.974;2023-08-12T02:17:41;17.20;99.90
52731;DHT22;38624;53.242;6.974;2023-08-12T02:20:07;17.20;99.90
52731;DHT22;38624;53.242;6.974;2023-08-12T02:22:33;17.20;99.90
52731;DHT22;38624;53.242;6.974;2023-08-12T02:24:59;17.20;99.90
52731;DHT22;38624;53.242;6.974;2023-08-12T02:27:25;17.10;99.90
52731;DHT22;38624;53.242;6.974;2023-08-12T02:29:51;17.10;99.90
52731;DHT22;38624;53.242;6.974;2023-08-12T02:32:17;17.10;99.90
52731;DHT22;38624;53.242;6.974;2023-08-12T02:34:42;17.10;99.90
52731;DHT22;38624;53.242;6.974;2023-08-12T02:37:08;17.10;99.90
52731;DHT22;38624;53.242;6.974;2023-08-12T02:39:34;17.20;99.90
52731;DHT22;38624;53.242;6.974;2023-08-12T02:41:59;17.20;99.90
52731;DHT22;38624;53.242;6.974;2023-08-12T02:44:25;17.30;99.90
52731;DHT22;38624;53.242;6.974;2023-08-12T02:46:51;17.30;99.90
52731;DHT22;38624;53.242;6.974;2023-08-12T02:49:16;17.40;99.90
52731;DHT22;38624;53.242;6.974;2023-08-12T02:51:42;17.40;99.90
52731;DHT22;38624;53.242;6.974;2023-08-12T02:54:08;17.40;99.90
52731;DHT22;38624;53.242;6.974;2023-08-12T02:56:34;17.50;99.90
52731;DHT22;38624;53.242;6.974;2023-08-12T02:59:00;17.50;99.90
52731;DHT22;38624;53.242;6.974;2023-08-12T03:01:25;17.50;99.90
52731;DHT22;38624;53.242;6.974;2023-08-12T03:03:53;17.40;99.90
52731;DHT22;38624;53.242;6.974;2023-08-12T03:06:18;17.40;99.90
52731;DHT22;38624;53.242;6.974;2023-08-12T03:08:44;17.50;99.90
52731;DHT22;38624;53.242;6.974;2023-08-12T03:11:09;17.50;99.90
52731;DHT22;38624;53.242;6.974;2023-08-12T03:13:35;17.50;99.90
52731;DHT22;38624;53.242;6.974;2023-08-12T03:16:01;17.60;99.90
52731;DHT22;38624;53.242;6.974;2023-08-12T03:18:26;17.60;99.90
52731;DHT22;38624;53.242;6.974;2023-08-12T03:20:52;17.70;99.90
52731;DHT22;38624;53.242;6.974;2023-08-12T03:23:18;17.70;99.90
52731;DHT22;38624;53.242;6.974;2023-08-12T03:25:44;17.70;99.90
52731;DHT22;38624;53.242;6.974;2023-08-12T03:28:11;17.70;99.90
52731;DHT22;38624;53.242;6.974;2023-08-12T03:30:37;17.70;99.90
52731;DHT22;38624;53.242;6.974;2023-08-12T03:33:03;17.70;99.90
52731;DHT22;38624;53.242;6.974;2023-08-12T03:35:29;17.70;99.90
52731;DHT22;38624;53.242;6.974;2023-08-12T03:37:54;17.70;99.90
52731;DHT22;38624;53.242;6.974;2023-08-12T03:40:20;17.70;99.90
52731;DHT22;38624;53.242;6.974;2023-08-12T03:42:46;17.60;99.90
52731;DHT22;38624;53.242;6.974;2023-08-12T03:45:11;17.50;99.90
52731;DHT22;38624;53.242;6.974;2023-08-12T03:47:37;17.50;99.90
52731;DHT22;38624;53.242;6.974;2023-08-12T03:50:03;17.40;99.90
52731;DHT22;38624;53.242;6.974;2023-08-12T03:52:29;17.40;99.90
52731;DHT22;38624;53.242;6.974;2023-08-12T03:54:54;17.30;99.90
52731;DHT22;38624;53.242;6.974;2023-08-12T03:57:20;17.30;99.90
52731;DHT22;38624;53.242;6.974;2023-08-12T03:59:46;17.30;99.90
52731;DHT22;38624;53.242;6.974;2023-08-12T04:02:11;17.20;99.90
52731;DHT22;38624;53.242;6.974;2023-08-12T04:04:37;17.20;99.90
52731;DHT22;38624;53.242;6.974;2023-08-12T04:07:03;17.20;99.90
52731;DHT22;38624;53.242;6.974;2023-08-12T04:09:28;17.20;99.90
52731;DHT22;38624;53.242;6.974;2023-08-12T04:11:54;17.20;99.90
52731;DHT22;38624;53.242;6.974;2023-08-12T04:14:20;17.30;99.90
52731;DHT22;38624;53.242;6.974;2023-08-12T04:16:45;17.30;99.90
52731;DHT22;38624;53.242;6.974;2023-08-12T04:19:11;17.30;99.90
52731;DHT22;38624;53.242;6.974;2023-08-12T04:21:37;17.30;99.90
52731;DHT22;38624;53.242;6.974;2023-08-12T04:24:03;17.30;99.90
52731;DHT22;38624;53.242;6.974;2023-08-12T04:26:28;17.30;99.90
52731;DHT22;38624;53.242;6.974;2023-08-12T04:28:54;17.30;99.90
52731;DHT22;38624;53.242;6.974;2023-08-12T04:31:19;17.20;99.90
52731;DHT22;38624;53.242;6.974;2023-08-12T04:33:45;17.20;99.90
52731;DHT22;38624;53.242;6.974;2023-08-12T04:36:11;17.20;99.90
52731;DHT22;38624;53.242;6.974;2023-08-12T04:38:37;17.30;99.90
52731;DHT22;38624;53.242;6.974;2023-08-12T04:41:02;17.30;99.90
52731;DHT22;38624;53.242;6.974;2023-08-12T04:43:28;17.40;99.90
52731;DHT22;38624;53.242;6.974;2023-08-12T04:45:54;17.40;99.90
52731;DHT22;38624;53.242;6.974;2023-08-12T04:48:19;17.50;99.90
52731;DHT22;38624;53.242;6.974;2023-08-12T04:50:45;17.50;99.90
52731;DHT22;38624;53.242;6.974;2023-08-12T04:53:11;17.50;99.90
52731;DHT22;38624;53.242;6.974;2023-08-12T04:55:36;17.60;99.90
52731;DHT22;38624;53.242;6.974;2023-08-12T04:58:03;17.70;99.90
52731;DHT22;38624;53.242;6.974;2023-08-12T05:00:29;17.70;99.90
52731;DHT22;38624;53.242;6.974;2023-08-12T05:02:55;17.80;99.90
52731;DHT22;38624;53.242;6.974;2023-08-12T05:05:21;17.80;99.90
52731;DHT22;38624;53.242;6.974;2023-08-12T05:07:46;17.90;99.90
52731;DHT22;38624;53.242;6.974;2023-08-12T05:10:18;17.90;99.90
52731;DHT22;38624;53.242;6.974;2023-08-12T05:12:44;18.00;99.90
52731;DHT22;38624;53.242;6.974;2023-08-12T05:15:10;18.00;99.90
52731;DHT22;38624;53.242;6.974;2023-08-12T05:17:36;18.00;99.90
52731;DHT22;38624;53.242;6.974;2023-08-12T05:20:02;18.10;99.90
52731;DHT22;38624;53.242;6.974;2023-08-12T05:22:29;18.10;99.90
52731;DHT22;38624;53.242;6.974;2023-08-12T05:24:54;18.10;99.90
52731;DHT22;38624;53.242;6.974;2023-08-12T05:27:20;18.20;99.90
52731;DHT22;38624;53.242;6.974;2023-08-12T05:29:46;18.30;99.90
52731;DHT22;38624;53.242;6.974;2023-08-12T05:32:12;18.30;99.90
52731;DHT22;38624;53.242;6.974;2023-08-12T05:34:37;18.40;99.90
52731;DHT22;38624;53.242;6.974;2023-08-12T05:37:03;18.50;99.90
52731;DHT22;38624;53.242;6.974;2023-08-12T05:39:29;18.60;99.90
52731;DHT22;38624;53.242;6.974;2023-08-12T05:41:54;18.60;99.90
52731;DHT22;38624;53.242;6.974;2023-08-12T05:44:20;18.70;99.90
52731;DHT22;38624;53.242;6.974;2023-08-12T05:46:46;18.80;99.90
52731;DHT22;38624;53.242;6.974;2023-08-12T05:49:12;18.90;99.90
52731;DHT22;38624;53.242;6.974;2023-08-12T05:51:37;19.00;99.90
52731;DHT22;38624;53.242;6.974;2023-08-12T05:54:04;19.20;99.90
52731;DHT22;38624;53.242;6.974;2023-08-12T05:56:30;19.30;99.90
52731;DHT22;38624;53.242;6.974;2023-08-12T05:58:56;19.50;99.90
52731;DHT22;38624;53.242;6.974;2023-08-12T06:01:21;19.60;99.90
52731;DHT22;38624;53.242;6.974;2023-08-12T06:03:47;19.80;99.90
52731;DHT22;38624;53.242;6.974;2023-08-12T06:06:13;19.80;99.90
52731;DHT22;38624;53.242;6.974;2023-08-12T06:08:38;19.90;99.90
52731;DHT22;38624;53.242;6.974;2023-08-12T06:11:04;20.00;99.90
52731;DHT22;38624;53.242;6.974;2023-08-12T06:13:30;20.00;99.90
52731;DHT22;38624;53.242;6.974;2023-08-12T06:15:55;20.10;99.90
52731;DHT22;38624;53.242;6.974;2023-08-12T06:18:22;20.20;99.90
52731;DHT22;38624;53.242;6.974;2023-08-12T06:20:48;20.30;99.90
52731;DHT22;38624;53.242;6.974;2023-08-12T06:23:13;20.40;99.90
52731;DHT22;38624;53.242;6.974;2023-08-12T06:25:39;20.40;99.90
52731;DHT22;38624;53.242;6.974;2023-08-12T06:28:05;20.50;99.90
52731;DHT22;38624;53.242;6.974;2023-08-12T06:30:31;20.70;99.90
52731;DHT22;38624;53.242;6.974;2023-08-12T06:32:56;20.80;99.90
52731;DHT22;38624;53.242;6.974;2023-08-12T06:35:22;20.90;99.90
52731;DHT22;38624;53.242;6.974;2023-08-12T06:37:48;20.90;99.90
52731;DHT22;38624;53.242;6.974;2023-08-12T06:40:13;21.00;99.90
52731;DHT22;38624;53.242;6.974;2023-08-12T06:42:39;21.00;99.90
52731;DHT22;38624;53.242;6.974;2023-08-12T06:45:05;20.90;99.90
52731;DHT22;38624;53.242;6.974;2023-08-12T06:47:31;20.80;99.90
52731;DHT22;38624;53.242;6.974;2023-08-12T06:49:57;20.80;99.90
52731;DHT22;38624;53.242;6.974;2023-08-12T06:52:22;20.70;99.90
52731;DHT22;38624;53.242;6.974;2023-08-12T06:54:48;20.70;99.90
52731;DHT22;38624;53.242;6.974;2023-08-12T06:57:14;20.60;99.90
52731;DHT22;38624;53.242;6.974;2023-08-12T06:59:40;20.60;99.90
52731;DHT22;38624;53.242;6.974;2023-08-12T07:02:06;20.60;99.90
52731;DHT22;38624;53.242;6.974;2023-08-12T07:04:32;20.60;99.90
52731;DHT22;38624;53.242;6.974;2023-08-12T07:06:58;20.60;99.90
52731;DHT22;38624;53.242;6.974;2023-08-12T07:09:24;20.60;99.90
52731;DHT22;38624;53.242;6.974;2023-08-12T07:11:50;20.60;99.90
52731;DHT22;38624;53.242;6.974;2023-08-12T07:14:15;20.70;99.90
52731;DHT22;38624;53.242;6.974;2023-08-12T07:16:41;20.80;99.90
52731;DHT22;38624;53.242;6.974;2023-08-12T07:19:07;20.80;99.90
52731;DHT22;38624;53.242;6.974;2023-08-12T07:21:32;20.90;99.90
52731;DHT22;38624;53.242;6.974;2023-08-12T07:23:58;20.90;99.90
52731;DHT22;38624;53.242;6.974;2023-08-12T07:26:24;21.00;99.90
52731;DHT22;38624;53.242;6.974;2023-08-12T07:28:49;21.00;99.90
52731;DHT22;38624;53.242;6.974;2023-08-12T07:31:15;21.00;99.90
52731;DHT22;38624;53.242;6.974;2023-08-12T07:33:41;21.00;99.90
52731;DHT22;38624;53.242;6.974;2023-08-12T07:36:06;21.10;99.90
52731;DHT22;38624;53.242;6.974;2023-08-12T07:38:32;21.10;99.90
52731;DHT22;38624;53.242;6.974;2023-08-12T07:40:58;21.10;99.90
52731;DHT22;38624;53.242;6.974;2023-08-12T07:43:23;21.10;99.90
52731;DHT22;38624;53.242;6.974;2023-08-12T07:45:53;21.10;99.90
52731;DHT22;38624;53.242;6.974;2023-08-12T07:48:19;21.00;99.90
52731;DHT22;38624;53.242;6.974;2023-08-12T07:50:45;21.00;99.90
52731;DHT22;38624;53.242;6.974;2023-08-12T07:53:14;21.00;99.90
52731;DHT22;38624;53.242;6.974;2023-08-12T07:55:41;21.00;99.90
52731;DHT22;38624;53.242;6.974;2023-08-12T07:58:06;20.90;99.90
52731;DHT22;38624;53.242;6.974;2023-08-12T08:00:33;20.90;99.90
52731;DHT22;38624;53.242;6.974;2023-08-12T08:02:59;20.90;99.90
52731;DHT22;38624;53.242;6.974;2023-08-12T08:05:24;20.90;99.90
52731;DHT22;38624;53.242;6.974;2023-08-12T08:07:50;20.90;99.90
52731;DHT22;38624;53.242;6.974;2023-08-12T08:10:16;20.90;99.90
52731;DHT22;38624;53.242;6.974;2023-08-12T08:12:41;20.90;99.90
52731;DHT22;38624;53.242;6.974;2023-08-12T08:15:07;21.00;99.90
52731;DHT22;38624;53.242;6.974;2023-08-12T08:17:33;21.00;99.90
52731;DHT22;38624;53.242;6.974;2023-08-12T08:19:59;21.10;99.90
52731;DHT22;38624;53.242;6.974;2023-08-12T08:22:24;21.10;99.90
52731;DHT22;38624;53.242;6.974;2023-08-12T08:24:50;21.20;99.90
52731;DHT22;38624;53.242;6.974;2023-08-12T08:27:16;21.30;99.90
52731;DHT22;38624;53.242;6.974;2023-08-12T08:29:42;21.30;99.90
52731;DHT22;38624;53.242;6.974;2023-08-12T08:32:08;21.40;99.90
52731;DHT22;38624;53.242;6.974;2023-08-12T08:34:34;21.40;99.90
52731;DHT22;38624;53.242;6.974;2023-08-12T08:36:59;21.50;99.90
52731;DHT22;38624;53.242;6.974;2023-08-12T08:39:25;21.60;99.90
52731;DHT22;38624;53.242;6.974;2023-08-12T08:41:53;21.70;99.90
52731;DHT22;38624;53.242;6.974;2023-08-12T08:44:22;21.70;99.90
52731;DHT22;38624;53.242;6.974;2023-08-12T08:46:53;21.70;99.90
52731;DHT22;38624;53.242;6.974;2023-08-12T08:49:23;21.70;99.90
52731;DHT22;38624;53.242;6.974;2023-08-12T08:51:55;21.70;99.90
52731;DHT22;38624;53.242;6.974;2023-08-12T08:54:22;21.80;99.90
52731;DHT22;38624;53.242;6.974;2023-08-12T08:56:49;21.80;99.90
52731;DHT22;38624;53.242;6.974;2023-08-12T08:59:15;21.90;99.90
52731;DHT22;38624;53.242;6.974;2023-08-12T09:01:42;21.90;99.90
52731;DHT22;38624;53.242;6.974;2023-08-12T09:04:09;21.90;99.90
52731;DHT22;38624;53.242;6.974;2023-08-12T09:06:36;21.90;99.90
52731;DHT22;38624;53.242;6.974;2023-08-12T09:09:02;21.80;99.90
52731;DHT22;38624;53.242;6.974;2023-08-12T09:11:29;21.80;99.90
52731;DHT22;38624;53.242;6.974;2023-08-12T09:13:55;21.70;99.90
52731;DHT22;38624;53.242;6.974;2023-08-12T09:16:21;21.80;99.90
52731;DHT22;38624;53.242;6.974;2023-08-12T09:18:47;21.80;99.90
52731;DHT22;38624;53.242;6.974;2023-08-12T09:21:12;21.80;99.90
52731;DHT22;38624;53.242;6.974;2023-08-12T09:23:40;21.70;99.90
52731;DHT22;38624;53.242;6.974;2023-08-12T09:26:17;21.60;99.90
52731;DHT22;38624;53.242;6.974;2023-08-12T09:28:43;21.50;99.90
52731;DHT22;38624;53.242;6.974;2023-08-12T09:31:22;21.50;99.90
52731;DHT22;38624;53.242;6.974;2023-08-12T09:33:49;21.50;99.90
52731;DHT22;38624;53.242;6.974;2023-08-12T09:36:16;21.40;99.90
52731;DHT22;38624;53.242;6.974;2023-08-12T09:38:42;21.30;99.90
52731;DHT22;38624;53.242;6.974;2023-08-12T09:41:08;21.20;99.90
52731;DHT22;38624;53.242;6.974;2023-08-12T09:43:33;21.20;99.90
52731;DHT22;38624;53.242;6.974;2023-08-12T09:45:59;21.10;99.90
52731;DHT22;38624;53.242;6.974;2023-08-12T09:48:26;21.10;99.90
52731;DHT22;38624;53.242;6.974;2023-08-12T09:50:52;21.00;99.90
52731;DHT22;38624;53.242;6.974;2023-08-12T09:53:19;20.90;99.90
52731;DHT22;38624;53.242;6.974;2023-08-12T09:55:48;20.80;99.90
52731;DHT22;38624;53.242;6.974;2023-08-12T09:58:17;20.70;99.90
52731;DHT22;38624;53.242;6.974;2023-08-12T10:00:43;20.70;99.90
52731;DHT22;38624;53.242;6.974;2023-08-12T10:03:14;20.70;99.90
52731;DHT22;38624;53.242;6.974;2023-08-12T10:05:41;20.60;99.90
52731;DHT22;38624;53.242;6.974;2023-08-12T10:08:08;20.70;99.90
52731;DHT22;38624;53.242;6.974;2023-08-12T10:10:35;20.60;99.90
52731;DHT22;38624;53.242;6.974;2023-08-12T10:13:01;20.60;99.90
52731;DHT22;38624;53.242;6.974;2023-08-12T10:15:28;20.50;99.90
52731;DHT22;38624;53.242;6.974;2023-08-12T10:17:55;20.50;99.90
52731;DHT22;38624;53.242;6.974;2023-08-12T10:20:23;20.40;99.90
52731;DHT22;38624;53.242;6.974;2023-08-12T10:22:49;20.40;99.90
52731;DHT22;38624;53.242;6.974;2023-08-12T10:25:18;20.40;99.90
52731;DHT22;38624;53.242;6.974;2023-08-12T10:27:44;20.50;99.90
52731;DHT22;38624;53.242;6.974;2023-08-12T10:30:10;20.50;99.90
52731;DHT22;38624;53.242;6.974;2023-08-12T10:32:39;20.60;99.90
52731;DHT22;38624;53.242;6.974;2023-08-12T10:35:05;20.60;99.90
52731;DHT22;38624;53.242;6.974;2023-08-12T10:37:33;20.60;99.90
52731;DHT22;38624;53.242;6.974;2023-08-12T10:40:02;20.70;99.90
52731;DHT22;38624;53.242;6.974;2023-08-12T10:45:08;20.80;99.90
52731;DHT22;38624;53.242;6.974;2023-08-12T10:47:47;20.90;99.90
52731;DHT22;38624;53.242;6.974;2023-08-12T10:50:25;20.80;99.90
52731;DHT22;38624;53.242;6.974;2023-08-12T10:52:51;20.70;99.90
52731;DHT22;38624;53.242;6.974;2023-08-12T10:55:23;20.70;99.90
52731;DHT22;38624;53.242;6.974;2023-08-12T10:57:51;20.70;99.90
52731;DHT22;38624;53.242;6.974;2023-08-12T11:00:20;20.70;99.90
52731;DHT22;38624;53.242;6.974;2023-08-12T11:02:56;20.80;99.90
52731;DHT22;38624;53.242;6.974;2023-08-12T11:05:23;20.80;99.90
52731;DHT22;38624;53.242;6.974;2023-08-12T11:10:25;20.80;99.90
52731;DHT22;38624;53.242;6.974;2023-08-12T11:15:33;20.90;99.90
52731;DHT22;38624;53.242;6.974;2023-08-12T11:18:05;20.90;99.90
52731;DHT22;38624;53.242;6.974;2023-08-12T11:20:32;20.90;99.90
52731;DHT22;38624;53.242;6.974;2023-08-12T11:22:58;20.70;99.90
52731;DHT22;38624;53.242;6.974;2023-08-12T11:25:24;20.70;99.90
52731;DHT22;38624;53.242;6.974;2023-08-12T11:27:50;20.70;99.90
52731;DHT22;38624;53.242;6.974;2023-08-12T11:30:18;20.70;99.90
52731;DHT22;38624;53.242;6.974;2023-08-12T11:32:47;20.60;99.90
52731;DHT22;38624;53.242;6.974;2023-08-12T11:35:15;20.60;99.90
52731;DHT22;38624;53.242;6.974;2023-08-12T11:37:43;20.70;99.90
52731;DHT22;38624;53.242;6.974;2023-08-12T11:40:10;20.80;99.90
52731;DHT22;38624;53.242;6.974;2023-08-12T11:42:40;21.00;99.90
52731;DHT22;38624;53.242;6.974;2023-08-12T11:45:07;21.10;99.90
52731;DHT22;38624;53.242;6.974;2023-08-12T11:47:33;21.30;99.90
52731;DHT22;38624;53.242;6.974;2023-08-12T11:50:02;21.30;99.90
52731;DHT22;38624;53.242;6.974;2023-08-12T11:52:29;21.40;99.90
52731;DHT22;38624;53.242;6.974;2023-08-12T11:54:56;21.40;99.90
52731;DHT22;38624;53.242;6.974;2023-08-12T11:57:22;21.10;99.90
52731;DHT22;38624;53.242;6.974;2023-08-12T11:59:48;21.00;99.90
52731;DHT22;38624;53.242;6.974;2023-08-12T12:02:13;21.00;99.90
52731;DHT22;38624;53.242;6.974;2023-08-12T12:04:41;21.10;99.90
52731;DHT22;38624;53.242;6.974;2023-08-12T12:07:20;21.30;99.90
52731;DHT22;38624;53.242;6.974;2023-08-12T12:09:49;21.50;99.90
52731;DHT22;38624;53.242;6.974;2023-08-12T12:12:15;21.50;99.90
52731;DHT22;38624;53.242;6.974;2023-08-12T12:14:41;21.60;99.90
52731;DHT22;38624;53.242;6.974;2023-08-12T12:17:08;21.60;99.90
52731;DHT22;38624;53.242;6.974;2023-08-12T12:19:35;21.60;99.90
52731;DHT22;38624;53.242;6.974;2023-08-12T12:22:03;21.70;99.90
52731;DHT22;38624;53.242;6.974;2023-08-12T12:24:30;22.20;99.90
52731;DHT22;38624;53.242;6.974;2023-08-12T12:26:56;21.60;99.90
52731;DHT22;38624;53.242;6.974;2023-08-12T12:29:23;21.60;99.90
52731;DHT22;38624;53.242;6.974;2023-08-12T12:31:49;21.30;99.90
52731;DHT22;38624;53.242;6.974;2023-08-12T12:34:14;21.10;99.90
52731;DHT22;38624;53.242;6.974;2023-08-12T12:36:41;21.30;99.90
52731;DHT22;38624;53.242;6.974;2023-08-12T12:39:07;20.90;99.90
52731;DHT22;38624;53.242;6.974;2023-08-12T12:41:32;21.00;99.90
52731;DHT22;38624;53.242;6.974;2023-08-12T12:44:02;21.00;99.90
52731;DHT22;38624;53.242;6.974;2023-08-12T12:46:28;20.70;99.90
52731;DHT22;38624;53.242;6.974;2023-08-12T12:48:54;20.70;99.90
52731;DHT22;38624;53.242;6.974;2023-08-12T12:51:19;20.60;99.90
52731;DHT22;38624;53.242;6.974;2023-08-12T12:53:45;20.50;99.90
52731;DHT22;38624;53.242;6.974;2023-08-12T12:56:11;20.10;99.90
52731;DHT22;38624;53.242;6.974;2023-08-12T12:58:37;20.20;99.90
52731;DHT22;38624;53.242;6.974;2023-08-12T13:01:04;20.40;99.90
52731;DHT22;38624;53.242;6.974;2023-08-12T13:03:31;20.50;99.90
52731;DHT22;38624;53.242;6.974;2023-08-12T13:05:57;20.40;99.90
52731;DHT22;38624;53.242;6.974;2023-08-12T13:08:23;19.80;99.90
52731;DHT22;38624;53.242;6.974;2023-08-12T13:10:49;19.20;99.90
52731;DHT22;38624;53.242;6.974;2023-08-12T13:13:15;19.10;99.90
52731;DHT22;38624;53.242;6.974;2023-08-12T13:15:45;18.90;99.90
52731;DHT22;38624;53.242;6.974;2023-08-12T13:18:11;18.90;99.90
52731;DHT22;38624;53.242;6.974;2023-08-12T13:20:37;18.80;99.90
52731;DHT22;38624;53.242;6.974;2023-08-12T13:23:04;18.90;99.90
52731;DHT22;38624;53.242;6.974;2023-08-12T13:25:32;19.00;99.90
52731;DHT22;38624;53.242;6.974;2023-08-12T13:28:03;19.00;99.90
52731;DHT22;38624;53.242;6.974;2023-08-12T13:30:29;18.90;99.90
52731;DHT22;38624;53.242;6.974;2023-08-12T13:32:55;18.80;99.90
52731;DHT22;38624;53.242;6.974;2023-08-12T13:35:22;19.00;99.90
52731;DHT22;38624;53.242;6.974;2023-08-12T13:37:49;19.20;99.90
52731;DHT22;38624;53.242;6.974;2023-08-12T13:40:15;19.40;99.90
52731;DHT22;38624;53.242;6.974;2023-08-12T13:42:44;19.60;99.90
52731;DHT22;38624;53.242;6.974;2023-08-12T13:45:11;19.80;99.90
52731;DHT22;38624;53.242;6.974;2023-08-12T13:47:37;20.10;99.90
52731;DHT22;38624;53.242;6.974;2023-08-12T13:50:03;20.10;99.90
52731;DHT22;38624;53.242;6.974;2023-08-12T13:52:29;20.20;99.90
52731;DHT22;38624;53.242;6.974;2023-08-12T13:54:55;20.30;99.90
52731;DHT22;38624;53.242;6.974;2023-08-12T13:57:20;20.60;99.90
52731;DHT22;38624;53.242;6.974;2023-08-12T13:59:46;20.80;99.90
52731;DHT22;38624;53.242;6.974;2023-08-12T14:02:13;20.80;99.90
52731;DHT22;38624;53.242;6.974;2023-08-12T14:04:39;21.10;99.90
52731;DHT22;38624;53.242;6.974;2023-08-12T14:07:04;21.40;99.90
52731;DHT22;38624;53.242;6.974;2023-08-12T14:09:30;21.60;99.90
52731;DHT22;38624;53.242;6.974;2023-08-12T14:11:57;21.40;99.90
52731;DHT22;38624;53.242;6.974;2023-08-12T14:14:24;21.20;99.90
52731;DHT22;38624;53.242;6.974;2023-08-12T14:16:50;21.20;99.90
52731;DHT22;38624;53.242;6.974;2023-08-12T14:19:16;21.00;99.90
52731;DHT22;38624;53.242;6.974;2023-08-12T14:21:45;21.10;99.90
52731;DHT22;38624;53.242;6.974;2023-08-12T14:24:11;21.30;99.90
52731;DHT22;38624;53.242;6.974;2023-08-12T14:26:38;21.30;99.90
52731;DHT22;38624;53.242;6.974;2023-08-12T14:29:04;21.30;99.90
52731;DHT22;38624;53.242;6.974;2023-08-12T14:31:29;21.50;99.90
52731;DHT22;38624;53.242;6.974;2023-08-12T14:33:55;21.70;99.90
52731;DHT22;38624;53.242;6.974;2023-08-12T14:36:21;21.70;99.90
52731;DHT22;38624;53.242;6.974;2023-08-12T14:38:46;21.60;99.90
52731;DHT22;38624;53.242;6.974;2023-08-12T14:41:12;21.70;99.90
52731;DHT22;38624;53.242;6.974;2023-08-12T14:43:38;21.80;99.90
52731;DHT22;38624;53.242;6.974;2023-08-12T14:46:03;21.80;99.90
52731;DHT22;38624;53.242;6.974;2023-08-12T14:48:31;21.70;99.90
52731;DHT22;38624;53.242;6.974;2023-08-12T14:50:57;21.90;99.90
52731;DHT22;38624;53.242;6.974;2023-08-12T14:53:24;21.90;99.90
52731;DHT22;38624;53.242;6.974;2023-08-12T14:55:51;22.00;99.90
52731;DHT22;38624;53.242;6.974;2023-08-12T14:58:16;21.80;99.90
52731;DHT22;38624;53.242;6.974;2023-08-12T15:00:42;22.00;99.90
52731;DHT22;38624;53.242;6.974;2023-08-12T15:03:08;22.40;99.90
52731;DHT22;38624;53.242;6.974;2023-08-12T15:05:36;23.40;99.90
52731;DHT22;38624;53.242;6.974;2023-08-12T15:08:01;24.20;99.90
52731;DHT22;38624;53.242;6.974;2023-08-12T15:10:29;24.60;99.90
52731;DHT22;38624;53.242;6.974;2023-08-12T15:12:55;25.40;99.90
52731;DHT22;38624;53.242;6.974;2023-08-12T15:15:21;25.30;99.90
52731;DHT22;38624;53.242;6.974;2023-08-12T15:17:46;26.10;99.90
52731;DHT22;38624;53.242;6.974;2023-08-12T15:20:12;26.50;99.90
52731;DHT22;38624;53.242;6.974;2023-08-12T15:22:38;26.20;97.20
52731;DHT22;38624;53.242;6.974;2023-08-12T15:25:05;26.10;96.00
52731;DHT22;38624;53.242;6.974;2023-08-12T15:27:31;26.00;95.80
52731;DHT22;38624;53.242;6.974;2023-08-12T15:29:57;26.10;93.70
52731;DHT22;38624;53.242;6.974;2023-08-12T15:32:24;26.40;95.40